sensor_id;sensor_type;location;lat;lon;timestamp;temperature;humidity
46400;DHT22;32104;50.838;4.388;2022-10-17T00:00:16;16.40;99.90
46400;DHT22;32104;50.838;4.388;2022-10-17T00:02:41;16.50;99.90
46400;DHT22;32104;50.838;4.388;2022-10-17T00:05:07;16.50;99.90
46400;DHT22;32104;50.838;4.388;2022-10-17T00:07:33;16.60;99.90
46400;DHT22;32104;50.838;4.388;2022-10-17T00:10:05;16.60;99.90
46400;DHT22;32104;50.838;4.388;2022-10-17T06:06:50;18.70;99.90
46400;DHT22;32104;50.838;4.388;2022-10-17T06:09:16;18.70;99.90
46400;DHT22;32104;50.838;4.388;2022-10-17T06:11:42;18.60;99.90
46400;DHT22;32104;50.838;4.388;2022-10-17T06:14:08;18.60;99.90
46400;DHT22;32104;50.838;4.388;2022-10-17T06:16:33;18.50;99.90
46400;DHT22;32104;50.838;4.388;2022-10-17T06:21:34;18.40;99.90
46400;DHT22;32104;50.838;4.388;2022-10-17T06:24:02;18.60;99.90
46400;DHT22;32104;50.838;4.388;2022-10-17T06:26:27;18.70;99.90
46400;DHT22;32104;50.838;4.388;2022-10-17T06:28:53;18.70;99.90
46400;DHT22;32104;50.838;4.388;2022-10-17T06:31:19;18.80;99.90
46400;DHT22;32104;50.838;4.388;2022-10-17T06:33:45;18.90;99.90
46400;DHT22;32104;50.838;4.388;2022-10-17T06:36:12;18.70;99.90
46400;DHT22;32104;50.838;4.388;2022-10-17T06:38:39;18.70;99.90
46400;DHT22;32104;50.838;4.388;2022-10-17T06:41:07;18.80;99.90
46400;DHT22;32104;50.838;4.388;2022-10-17T06:43:37;18.90;99.90
46400;DHT22;32104;50.838;4.388;2022-10-17T06:46:03;19.00;99.90
46400;DHT22;32104;50.838;4.388;2022-10-17T06:48:29;18.90;99.90
46400;DHT22;32104;50.838;4.388;2022-10-17T06:51:01;19.00;99.90
46400;DHT22;32104;50.838;4.388;2022-10-17T06:53:34;19.00;99.90
46400;DHT22;32104;50.838;4.388;2022-10-17T06:56:00;19.00;99.90
46400;DHT22;32104;50.838;4.388;2022-10-17T06:58:30;19.00;99.90
46400;DHT22;32104;50.838;4.388;2022-10-17T07:01:07;19.20;99.90
46400;DHT22;32104;50.838;4.388;2022-10-17T07:03:46;19.20;99.90
46400;DHT22;32104;50.838;4.388;2022-10-17T07:06:12;19.30;99.90
46400;DHT22;32104;50.838;4.388;2022-10-17T07:08:41;19.30;99.90
46400;DHT22;32104;50.838;4.388;2022-10-17T07:11:10;19.30;99.90
46400;DHT22;32104;50.838;4.388;2022-10-17T07:13:36;19.30;99.90
46400;DHT22;32104;50.838;4.388;2022-10-17T07:16:03;19.30;99.90
46400;DHT22;32104;50.838;4.388;2022-10-17T07:18:29;19.30;99.90
46400;DHT22;32104;50.838;4.388;2022-10-17T07:20:55;19.20;99.90
46400;DHT22;32104;50.838;4.388;2022-10-17T07:23:21;19.20;99.90
46400;DHT22;32104;50.838;4.388;2022-10-17T07:25:47;19.40;99.90
46400;DHT22;32104;50.838;4.388;2022-10-17T07:28:16;19.30;99.90
46400;DHT22;32104;50.838;4.388;2022-10-17T07:30:41;19.20;99.90
46400;DHT22;32104;50.838;4.388;2022-10-17T07:33:07;19.20;99.90
46400;DHT22;32104;50.838;4.388;2022-10-17T07:35:40;19.10;99.90
46400;DHT22;32104;50.838;4.388;2022-10-17T07:38:06;19.00;99.90
46400;DHT22;32104;50.838;4.388;2022-10-17T07:40:32;19.00;99.90
46400;DHT22;32104;50.838;4.388;2022-10-17T07:43:03;18.80;99.90
46400;DHT22;32104;50.838;4.388;2022-10-17T07:45:29;18.60;99.90
46400;DHT22;32104;50.838;4.388;2022-10-17T07:47:58;18.60;99.90
46400;DHT22;32104;50.838;4.388;2022-10-17T07:50:24;18.70;99.90
46400;DHT22;32104;50.838;4.388;2022-10-17T07:52:49;18.60;99.90
46400;DHT22;32104;50.838;4.388;2022-10-17T07:55:15;18.60;99.90
46400;DHT22;32104;50.838;4.388;2022-10-17T07:57:41;18.50;99.90
46400;DHT22;32104;50.838;4.388;2022-10-17T08:00:08;18.50;99.90
46400;DHT22;32104;50.838;4.388;2022-10-17T08:02:33;18.40;99.90
46400;DHT22;32104;50.838;4.388;2022-10-17T08:05:01;18.40;99.90
46400;DHT22;32104;50.838;4.388;2022-10-17T08:07:28;18.40;99.90
46400;DHT22;32104;50.838;4.388;2022-10-17T08:09:54;18.30;99.90
46400;DHT22;32104;50.838;4.388;2022-10-17T08:12:20;18.40;99.90
46400;DHT22;32104;50.838;4.388;2022-10-17T08:14:46;18.30;99.90
46400;DHT22;32104;50.838;4.388;2022-10-17T08:17:13;18.50;99.90
46400;DHT22;32104;50.838;4.388;2022-10-17T08:19:39;18.60;99.90
46400;DHT22;32104;50.838;4.388;2022-10-17T08:22:04;18.80;99.90
46400;DHT22;32104;50.838;4.388;2022-10-17T08:24:30;18.70;99.90
46400;DHT22;32104;50.838;4.388;2022-10-17T08:26:57;18.50;99.90
46400;DHT22;32104;50.838;4.388;2022-10-17T08:29:24;18.50;99.90
46400;DHT22;32104;50.838;4.388;2022-10-17T08:31:51;18.50;99.90
46400;DHT22;32104;50.838;4.388;2022-10-17T08:34:17;18.30;99.90
46400;DHT22;32104;50.838;4.388;2022-10-17T08:36:42;18.40;99.90
46400;DHT22;32104;50.838;4.388;2022-10-17T08:39:08;18.40;99.90
46400;DHT22;32104;50.838;4.388;2022-10-17T08:41:49;18.40;99.90
46400;DHT22;32104;50.838;4.388;2022-10-17T08:46:43;18.70;99.90
46400;DHT22;32104;50.838;4.388;2022-10-17T08:51:57;18.60;99.90
46400;DHT22;32104;50.838;4.388;2022-10-17T08:54:34;18.50;99.90
46400;DHT22;32104;50.838;4.388;2022-10-17T08:57:03;18.50;99.90
46400;DHT22;32104;50.838;4.388;2022-10-17T08:59:34;18.50;99.90
46400;DHT22;32104;50.838;4.388;2022-10-17T09:02:22;18.50;99.90
46400;DHT22;32104;50.838;4.388;2022-10-17T09:18:12;18.70;99.90
46400;DHT22;32104;50.838;4.388;2022-10-17T09:20:44;18.70;99.90
46400;DHT22;32104;50.838;4.388;2022-10-17T09:23:15;18.80;99.90
46400;DHT22;32104;50.838;4.388;2022-10-17T09:25:42;18.60;99.90
46400;DHT22;32104;50.838;4.388;2022-10-17T09:32:59;18.70;99.90
46400;DHT22;32104;50.838;4.388;2022-10-17T09:35:26;18.90;99.90
46400;DHT22;32104;50.838;4.388;2022-10-17T09:37:52;18.90;99.90
46400;DHT22;32104;50.838;4.388;2022-10-17T09:40:31;18.80;99.90
46400;DHT22;32104;50.838;4.388;2022-10-17T09:42:58;19.00;99.90
46400;DHT22;32104;50.838;4.388;2022-10-17T09:45:25;19.10;99.90
46400;DHT22;32104;50.838;4.388;2022-10-17T09:48:07;19.00;99.90
46400;DHT22;32104;50.838;4.388;2022-10-17T09:50:36;19.10;99.90
46400;DHT22;32104;50.838;4.388;2022-10-17T09:53:13;19.10;99.90
46400;DHT22;32104;50.838;4.388;2022-10-17T09:55:44;19.00;99.90
46400;DHT22;32104;50.838;4.388;2022-10-17T09:58:13;18.90;99.90
46400;DHT22;32104;50.838;4.388;2022-10-17T10:00:40;19.00;99.90
46400;DHT22;32104;50.838;4.388;2022-10-17T10:03:13;18.90;99.90
46400;DHT22;32104;50.838;4.388;2022-10-17T10:06:03;19.00;99.90
46400;DHT22;32104;50.838;4.388;2022-10-17T10:08:31;18.90;99.90
46400;DHT22;32104;50.838;4.388;2022-10-17T10:11:03;18.90;99.90
46400;DHT22;32104;50.838;4.388;2022-10-17T10:13:29;18.90;99.90
46400;DHT22;32104;50.838;4.388;2022-10-17T10:16:11;18.90;99.90
46400;DHT22;32104;50.838;4.388;2022-10-17T10:18:38;18.60;99.90
46400;DHT22;32104;50.838;4.388;2022-10-17T10:21:05;18.90;99.90
46400;DHT22;32104;50.838;4.388;2022-10-17T10:23:32;19.00;99.90
46400;DHT22;32104;50.838;4.388;2022-10-17T10:25:59;18.90;99.90
46400;DHT22;32104;50.838;4.388;2022-10-17T10:28:27;18.80;99.90
46400;DHT22;32104;50.838;4.388;2022-10-17T10:30:53;18.80;99.90
46400;DHT22;32104;50.838;4.388;2022-10-17T10:33:24;18.90;99.90
46400;DHT22;32104;50.838;4.388;2022-10-17T10:36:01;18.90;99.90
46400;DHT22;32104;50.838;4.388;2022-10-17T10:38:31;19.10;99.90
46400;DHT22;32104;50.838;4.388;2022-10-17T10:41:18;19.30;99.90
46400;DHT22;32104;50.838;4.388;2022-10-17T10:43:47;19.40;99.90
46400;DHT22;32104;50.838;4.388;2022-10-17T10:46:18;19.50;99.90
46400;DHT22;32104;50.838;4.388;2022-10-17T10:48:52;19.40;99.90
46400;DHT22;32104;50.838;4.388;2022-10-17T10:56:36;19.30;99.90
46400;DHT22;32104;50.838;4.388;2022-10-17T10:59:22;19.20;99.90
46400;DHT22;32104;50.838;4.388;2022-10-17T11:18:20;19.40;99.90
46400;DHT22;32104;50.838;4.388;2022-10-17T11:20:50;19.40;99.90
46400;DHT22;32104;50.838;4.388;2022-10-17T11:26:33;19.30;99.90
46400;DHT22;32104;50.838;4.388;2022-10-17T11:29:09;19.20;99.90
46400;DHT22;32104;50.838;4.388;2022-10-17T11:31:42;19.20;99.90
46400;DHT22;32104;50.838;4.388;2022-10-17T11:34:21;19.30;99.90
46400;DHT22;32104;50.838;4.388;2022-10-17T11:37:02;19.30;99.90
46400;DHT22;32104;50.838;4.388;2022-10-17T11:39:50;19.20;99.90
46400;DHT22;32104;50.838;4.388;2022-10-17T11:45:22;19.10;99.90
46400;DHT22;32104;50.838;4.388;2022-10-17T11:50:54;19.10;99.90
46400;DHT22;32104;50.838;4.388;2022-10-17T11:56:07;19.30;99.90
46400;DHT22;32104;50.838;4.388;2022-10-17T11:58:42;19.20;99.90
46400;DHT22;32104;50.838;4.388;2022-10-17T12:01:15;19.40;99.90
46400;DHT22;32104;50.838;4.388;2022-10-17T12:12:07;19.30;99.90
46400;DHT22;32104;50.838;4.388;2022-10-17T12:17:02;19.60;99.90
46400;DHT22;32104;50.838;4.388;2022-10-17T12:19:31;19.60;99.90
46400;DHT22;32104;50.838;4.388;2022-10-17T12:22:05;19.70;99.90
46400;DHT22;32104;50.838;4.388;2022-10-17T12:24:52;19.70;99.90
46400;DHT22;32104;50.838;4.388;2022-10-17T12:30:04;19.40;99.90
46400;DHT22;32104;50.838;4.388;2022-10-17T12:32:30;19.40;99.90
46400;DHT22;32104;50.838;4.388;2022-10-17T12:34:57;19.30;99.90
46400;DHT22;32104;50.838;4.388;2022-10-17T12:42:51;19.40;99.90
46400;DHT22;32104;50.838;4.388;2022-10-17T12:48:01;19.30;99.90
46400;DHT22;32104;50.838;4.388;2022-10-17T12:53:11;19.50;99.90
46400;DHT22;32104;50.838;4.388;2022-10-17T12:55:39;19.60;99.90
46400;DHT22;32104;50.838;4.388;2022-10-17T13:03:24;19.60;99.90
46400;DHT22;32104;50.838;4.388;2022-10-17T13:05:52;19.60;99.90
46400;DHT22;32104;50.838;4.388;2022-10-17T13:08:24;19.70;99.90
46400;DHT22;32104;50.838;4.388;2022-10-17T13:10:54;19.70;99.90
46400;DHT22;32104;50.838;4.388;2022-10-17T13:15:58;19.80;99.90
46400;DHT22;32104;50.838;4.388;2022-10-17T13:18:25;19.70;99.90
46400;DHT22;32104;50.838;4.388;2022-10-17T13:21:33;19.80;99.90
46400;DHT22;32104;50.838;4.388;2022-10-17T13:23:39;19.80;99.90
46400;DHT22;32104;50.838;4.388;2022-10-17T13:28:37;19.90;99.90
46400;DHT22;32104;50.838;4.388;2022-10-17T13:31:05;20.00;99.90
46400;DHT22;32104;50.838;4.388;2022-10-17T13:33:34;19.90;99.90
46400;DHT22;32104;50.838;4.388;2022-10-17T13:36:01;20.10;99.90
46400;DHT22;32104;50.838;4.388;2022-10-17T13:38:28;20.10;99.90
46400;DHT22;32104;50.838;4.388;2022-10-17T13:40:56;20.10;99.90
46400;DHT22;32104;50.838;4.388;2022-10-17T13:43:22;20.00;99.90
46400;DHT22;32104;50.838;4.388;2022-10-17T13:45:52;20.00;99.90
46400;DHT22;32104;50.838;4.388;2022-10-17T13:48:23;20.00;99.90
46400;DHT22;32104;50.838;4.388;2022-10-17T13:50:53;19.90;99.90
46400;DHT22;32104;50.838;4.388;2022-10-17T13:56:05;19.80;99.90
46400;DHT22;32104;50.838;4.388;2022-10-17T13:58:33;19.80;99.90
46400;DHT22;32104;50.838;4.388;2022-10-17T14:01:03;19.70;99.90
46400;DHT22;32104;50.838;4.388;2022-10-17T14:03:29;19.70;99.90
46400;DHT22;32104;50.838;4.388;2022-10-17T14:06:10;19.80;99.90
46400;DHT22;32104;50.838;4.388;2022-10-17T14:08:38;19.80;99.90
46400;DHT22;32104;50.838;4.388;2022-10-17T14:11:24;19.90;99.90
46400;DHT22;32104;50.838;4.388;2022-10-17T14:13:51;19.80;99.90
46400;DHT22;32104;50.838;4.388;2022-10-17T14:16:17;19.80;99.90
46400;DHT22;32104;50.838;4.388;2022-10-17T14:18:45;19.80;99.90
46400;DHT22;32104;50.838;4.388;2022-10-17T14:21:16;19.80;99.90
46400;DHT22;32104;50.838;4.388;2022-10-17T14:23:44;19.90;99.90
46400;DHT22;32104;50.838;4.388;2022-10-17T14:28:42;20.10;99.90
46400;DHT22;32104;50.838;4.388;2022-10-17T14:31:09;20.10;99.90
46400;DHT22;32104;50.838;4.388;2022-10-17T14:33:45;20.10;99.90
46400;DHT22;32104;50.838;4.388;2022-10-17T14:36:12;20.00;99.90
46400;DHT22;32104;50.838;4.388;2022-10-17T14:38:42;20.00;99.90
46400;DHT22;32104;50.838;4.388;2022-10-17T14:41:30;19.90;99.90
46400;DHT22;32104;50.838;4.388;2022-10-17T14:44:06;19.90;99.90
46400;DHT22;32104;50.838;4.388;2022-10-17T14:46:35;19.80;99.90
46400;DHT22;32104;50.838;4.388;2022-10-17T14:49:04;19.70;99.90
46400;DHT22;32104;50.838;4.388;2022-10-17T14:51:29;19.70;99.90
46400;DHT22;32104;50.838;4.388;2022-10-17T14:59:32;19.70;99.90
46400;DHT22;32104;50.838;4.388;2022-10-17T15:02:01;19.80;99.90
46400;DHT22;32104;50.838;4.388;2022-10-17T15:04:27;19.80;99.90
46400;DHT22;32104;50.838;4.388;2022-10-17T15:06:53;19.80;99.90
46400;DHT22;32104;50.838;4.388;2022-10-17T15:09:19;19.90;99.90
46400;DHT22;32104;50.838;4.388;2022-10-17T15:11:46;20.00;99.90
46400;DHT22;32104;50.838;4.388;2022-10-17T15:14:11;20.00;99.90
46400;DHT22;32104;50.838;4.388;2022-10-17T15:16:37;20.00;99.90
46400;DHT22;32104;50.838;4.388;2022-10-17T15:19:03;19.90;99.90
46400;DHT22;32104;50.838;4.388;2022-10-17T15:21:29;19.80;99.90
46400;DHT22;32104;50.838;4.388;2022-10-17T15:23:55;19.80;99.90
46400;DHT22;32104;50.838;4.388;2022-10-17T15:26:23;19.80;99.90
46400;DHT22;32104;50.838;4.388;2022-10-17T15:28:50;19.90;99.90
46400;DHT22;32104;50.838;4.388;2022-10-17T15:31:17;19.80;99.90
46400;DHT22;32104;50.838;4.388;2022-10-17T15:33:50;19.70;99.90
46400;DHT22;32104;50.838;4.388;2022-10-17T15:36:17;19.70;99.90
46400;DHT22;32104;50.838;4.388;2022-10-17T15:38:46;19.80;99.90
46400;DHT22;32104;50.838;4.388;2022-10-17T15:41:12;19.80;99.90
46400;DHT22;32104;50.838;4.388;2022-10-17T15:43:38;19.70;99.90
46400;DHT22;32104;50.838;4.388;2022-10-17T15:46:08;19.70;99.90
46400;DHT22;32104;50.838;4.388;2022-10-17T15:48:35;19.80;99.90
46400;DHT22;32104;50.838;4.388;2022-10-17T15:51:01;19.60;99.90
46400;DHT22;32104;50.838;4.388;2022-10-17T15:53:27;19.60;99.90
46400;DHT22;32104;50.838;4.388;2022-10-17T15:55:52;19.50;99.90
46400;DHT22;32104;50.838;4.388;2022-10-17T15:58:18;19.40;99.90
46400;DHT22;32104;50.838;4.388;2022-10-17T16:00:44;19.50;99.90
46400;DHT22;32104;50.838;4.388;2022-10-17T16:03:11;19.50;99.90
46400;DHT22;32104;50.838;4.388;2022-10-17T16:05:37;19.50;99.90
46400;DHT22;32104;50.838;4.388;2022-10-17T16:08:02;19.50;99.90
46400;DHT22;32104;50.838;4.388;2022-10-17T16:10:28;19.50;99.90
46400;DHT22;32104;50.838;4.388;2022-10-17T16:12:54;19.40;99.90
46400;DHT22;32104;50.838;4.388;2022-10-17T16:15:21;19.50;99.90
46400;DHT22;32104;50.838;4.388;2022-10-17T16:17:51;19.50;99.90
46400;DHT22;32104;50.838;4.388;2022-10-17T16:20:17;19.40;99.90
46400;DHT22;32104;50.838;4.388;2022-10-17T16:22:52;19.30;99.90
46400;DHT22;32104;50.838;4.388;2022-10-17T16:25:26;19.30;99.90
46400;DHT22;32104;50.838;4.388;2022-10-17T16:27:53;19.30;99.90
46400;DHT22;32104;50.838;4.388;2022-10-17T16:30:20;19.20;99.90
46400;DHT22;32104;50.838;4.388;2022-10-17T16:32:45;19.10;99.90
46400;DHT22;32104;50.838;4.388;2022-10-17T16:35:19;19.10;99.90
46400;DHT22;32104;50.838;4.388;2022-10-17T16:37:45;19.20;99.90
46400;DHT22;32104;50.838;4.388;2022-10-17T16:40:13;19.10;99.90
46400;DHT22;32104;50.838;4.388;2022-10-17T16:42:39;19.10;99.90
46400;DHT22;32104;50.838;4.388;2022-10-17T16:45:04;19.10;99.90
46400;DHT22;32104;50.838;4.388;2022-10-17T16:47:30;19.00;99.90
46400;DHT22;32104;50.838;4.388;2022-10-17T16:49:56;18.90;99.90
46400;DHT22;32104;50.838;4.388;2022-10-17T16:52:21;18.80;99.90
46400;DHT22;32104;50.838;4.388;2022-10-17T16:57:22;18.80;99.90
46400;DHT22;32104;50.838;4.388;2022-10-17T16:59:48;18.80;99.90
46400;DHT22;32104;50.838;4.388;2022-10-17T17:02:14;18.70;99.90
46400;DHT22;32104;50.838;4.388;2022-10-17T17:04:40;18.70;99.90
46400;DHT22;32104;50.838;4.388;2022-10-17T17:07:08;18.70;99.90
46400;DHT22;32104;50.838;4.388;2022-10-17T17:09:34;18.60;99.90
46400;DHT22;32104;50.838;4.388;2022-10-17T17:12:06;18.70;99.90
46400;DHT22;32104;50.838;4.388;2022-10-17T17:14:32;18.70;99.90
46400;DHT22;32104;50.838;4.388;2022-10-17T17:16:58;18.80;99.90
46400;DHT22;32104;50.838;4.388;2022-10-17T17:19:43;18.90;99.90
46400;DHT22;32104;50.838;4.388;2022-10-17T17:38:06;18.80;99.90
46400;DHT22;32104;50.838;4.388;2022-10-17T17:57:50;18.40;99.90
46400;DHT22;32104;50.838;4.388;2022-10-17T18:00:21;18.20;99.90
46400;DHT22;32104;50.838;4.388;2022-10-17T18:33:17;18.30;99.90
46400;DHT22;32104;50.838;4.388;2022-10-17T18:35:46;18.40;99.90
46400;DHT22;32104;50.838;4.388;2022-10-17T18:38:19;18.50;99.90
46400;DHT22;32104;50.838;4.388;2022-10-17T19:17:03;18.20;99.90
46400;DHT22;32104;50.838;4.388;2022-10-17T19:43:40;18.30;99.90
46400;DHT22;32104;50.838;4.388;2022-10-17T19:48:50;18.20;99.90
46400;DHT22;32104;50.838;4.388;2022-10-17T19:51:22;18.20;99.90
46400;DHT22;32104;50.838;4.388;2022-10-17T20:02:32;18.00;99.90
46400;DHT22;32104;50.838;4.388;2022-10-17T21:05:56;17.90;99.90
46400;DHT22;32104;50.838;4.388;2022-10-17T21:08:23;18.10;99.90
46400;DHT22;32104;50.838;4.388;2022-10-17T21:10:52;18.10;99.90
46400;DHT22;32104;50.838;4.388;2022-10-17T21:15:59;18.20;99.90
46400;DHT22;32104;50.838;4.388;2022-10-17T21:18:31;18.20;99.90
46400;DHT22;32104;50.838;4.388;2022-10-17T21:21:05;18.20;99.90
46400;DHT22;32104;50.838;4.388;2022-10-17T21:26:18;18.10;99.90
46400;DHT22;32104;50.838;4.388;2022-10-17T21:28:50;18.00;99.90
46400;DHT22;32104;50.838;4.388;2022-10-17T21:31:19;18.00;99.90
46400;DHT22;32104;50.838;4.388;2022-10-17T21:33:46;18.20;99.90
46400;DHT22;32104;50.838;4.388;2022-10-17T21:36:12;18.10;99.90
46400;DHT22;32104;50.838;4.388;2022-10-17T21:38:40;18.10;99.90
46400;DHT22;32104;50.838;4.388;2022-10-17T21:43:50;18.20;99.90
46400;DHT22;32104;50.838;4.388;2022-10-17T21:46:19;18.10;99.90
46400;DHT22;32104;50.838;4.388;2022-10-17T21:48:45;18.20;99.90
46400;DHT22;32104;50.838;4.388;2022-10-17T21:53:47;18.10;99.90
46400;DHT22;32104;50.838;4.388;2022-10-17T21:56:16;18.20;99.90
46400;DHT22;32104;50.838;4.388;2022-10-17T21:58:42;18.10;99.90
46400;DHT22;32104;50.838;4.388;2022-10-17T22:01:10;18.20;99.90
46400;DHT22;32104;50.838;4.388;2022-10-17T22:03:36;18.10;99.90
46400;DHT22;32104;50.838;4.388;2022-10-17T22:06:07;18.10;99.90
46400;DHT22;32104;50.838;4.388;2022-10-17T22:08:33;18.10;99.90
46400;DHT22;32104;50.838;4.388;2022-10-17T22:13:34;18.00;99.90
46400;DHT22;32104;50.838;4.388;2022-10-17T22:16:09;17.90;99.90
46400;DHT22;32104;50.838;4.388;2022-10-17T22:18:36;18.00;99.90
